Terminal Aerodrome Forecast
Issued by NWS Charleston, WV

Home | Current Version | Previous Version | Text Only | Print | Product List | Glossary On
Versions: 1 2 3 4 5 6 7 8 9 10 11 12 13 14 15 16 17 18 19 20 21 22 23
000
FTUS41 KRLX 311100
TAFBKW
TAF
KBKW 311120Z 3112/0112 00000KT P6SM SCT250
     FM311400 VRB03KT P6SM SCT040
     FM010000 00000KT P6SM BKN045
     FM010200 00000KT P6SM SCT045
     FM010700 VRB03KT P6SM BKN035
     FM011100 VRB03KT P6SM VCTS BKN015CB=

USA.gov is the U.S. government's official web portal to all federal, state and local government web resources and services.